Glidden, Texas
Current Conditions -  °F | °C
As of 10:15 PM on Wednesday 22 Oct 2014 (Local Time) from K66R Reporting Station
Clear Clear  
Wind Chill: 67°   Ceiling: Unl
Heat Index: 67°   Visibility: 10mi
Dew Point: 59°   Wind: 3mph
Humidity: 75%   Direction: 70°ENE
Pressure: 30.09"   Gusts: NA
Location:  29.7°N, 96.59°W
Report Text: K66R 230315Z AUTO 07003KT 10SM CLR 20/15 A3009 RMK AO2 T01960150
Loading
Personal Weather Stations






























Interactive Weather Map
Tropical Storm Tracking
New forecast layout! Learn more

10-Day Weather Forecast

Advertisements
Track Severe Weather on mobile